Time;durP1;ratioP1;P1;durP2;ratioP2;P2;SDS_P1;SDS_P2;PMS_P1;PMS_P2;Temp;Humidity;BMP_temperature;BMP_pressure;BME280_temperature;BME280_humidity;BME280_pressure;Samples;Min_cycle;Max_cycle;Signal;HPM_P1;HPM_P2
2024/01/13 00:01:55;;;;;;;19.10;12.17;;;-2.40;99.90;;;;;;5055319;28;20240;-78
2024/01/13 00:04:21;;;;;;;20.63;12.57;;;-2.20;99.90;;;;;;5054713;28;20189;-78
2024/01/13 00:06:46;;;;;;;21.07;12.70;;;-2.20;99.90;;;;;;5055383;28;20180;-76
2024/01/13 00:09:12;;;;;;;20.97;13.23;;;-2.30;99.90;;;;;;5056693;28;20197;-76
2024/01/13 00:11:38;;;;;;;23.43;12.97;;;-2.50;99.90;;;;;;5060359;28;20236;-79
2024/01/13 00:14:05;;;;;;;22.80;12.77;;;-2.70;99.90;;;;;;5052929;28;20718;-78
2024/01/13 00:16:31;;;;;;;21.33;12.93;;;-2.60;99.90;;;;;;5054343;28;20258;-78
2024/01/13 00:18:57;;;;;;;21.00;11.80;;;-2.10;99.90;;;;;;5053820;28;20200;-79
2024/01/13 00:21:22;;;;;;;23.13;13.50;;;-2.60;99.90;;;;;;5052506;28;20214;-78
2024/01/13 00:23:48;;;;;;;23.33;12.60;;;-2.80;99.90;;;;;;5062192;28;20207;-79
2024/01/13 00:26:15;;;;;;;20.43;12.23;;;-2.50;99.90;;;;;;5064657;28;20208;-77
2024/01/13 00:28:42;;;;;;;21.47;12.33;;;-2.50;99.90;;;;;;5054051;28;20176;-78
2024/01/13 00:31:08;;;;;;;17.93;11.93;;;-2.20;99.90;;;;;;5056819;28;20179;-80
2024/01/13 00:33:35;;;;;;;19.13;11.83;;;-2.50;99.90;;;;;;5051335;28;20185;-81
2024/01/13 00:36:01;;;;;;;18.90;11.50;;;-2.40;99.90;;;;;;5050632;28;20183;-81
2024/01/13 00:38:28;;;;;;;19.53;12.37;;;-2.60;99.90;;;;;;5062722;28;20515;-77
2024/01/13 00:40:53;;;;;;;20.77;12.20;;;-2.60;99.90;;;;;;5035968;28;20222;-79
2024/01/13 00:43:19;;;;;;;18.77;12.03;;;-2.40;99.90;;;;;;5052462;28;20590;-80
2024/01/13 00:45:49;;;;;;;17.53;11.90;;;-2.40;99.90;;;;;;5051418;28;20560;-78
2024/01/13 00:48:16;;;;;;;21.07;12.27;;;-2.40;99.90;;;;;;5035022;28;20257;-78
2024/01/13 00:50:43;;;;;;;19.20;12.07;;;-2.50;99.90;;;;;;5069594;28;20190;-78
2024/01/13 00:53:09;;;;;;;17.83;11.27;;;-2.60;99.90;;;;;;5044639;28;20208;-78
2024/01/13 00:55:35;;;;;;;19.03;11.90;;;-2.60;99.90;;;;;;5051373;28;20207;-76
2024/01/13 00:58:02;;;;;;;17.83;11.60;;;-2.40;99.90;;;;;;5053256;28;20294;-78
2024/01/13 01:00:31;;;;;;;18.57;11.80;;;-2.30;99.90;;;;;;5036207;28;20381;-80
2024/01/13 01:02:56;;;;;;;16.70;11.43;;;-2.50;99.90;;;;;;5052338;28;20234;-78
2024/01/13 01:05:22;;;;;;;19.43;11.80;;;-2.20;99.90;;;;;;5045335;28;20264;-79
2024/01/13 01:07:48;;;;;;;19.43;12.10;;;-2.30;99.90;;;;;;5032578;28;20230;-79
2024/01/13 01:10:14;;;;;;;20.17;11.47;;;-2.50;99.90;;;;;;5037974;28;20172;-78
2024/01/13 01:12:40;;;;;;;104.97;48.93;;;-2.70;99.90;;;;;;5054724;28;20231;-77
2024/01/13 01:15:06;;;;;;;59.67;33.77;;;-2.50;99.90;;;;;;5039040;28;20539;-79
2024/01/13 01:17:32;;;;;;;22.63;15.40;;;-2.60;99.90;;;;;;5054240;28;20175;-79
2024/01/13 01:19:58;;;;;;;18.30;12.03;;;-2.40;99.90;;;;;;5053065;28;20660;-79
2024/01/13 01:22:23;;;;;;;22.10;12.00;;;-2.50;99.90;;;;;;5052245;28;20220;-78
2024/01/13 01:24:49;;;;;;;20.53;12.20;;;-2.50;99.90;;;;;;5055576;28;20184;-78
2024/01/13 01:27:15;;;;;;;19.30;11.60;;;-2.60;99.90;;;;;;5056587;28;20254;-79
2024/01/13 01:29:41;;;;;;;17.30;11.27;;;-2.60;99.90;;;;;;5062699;28;20183;-79
2024/01/13 01:32:06;;;;;;;16.23;11.10;;;-2.70;99.90;;;;;;5059428;28;20182;-77
2024/01/13 01:34:32;;;;;;;19.97;11.67;;;-2.60;99.90;;;;;;5057207;28;20636;-77
2024/01/13 01:36:58;;;;;;;19.00;11.57;;;-2.80;99.90;;;;;;5052817;28;20180;-77
2024/01/13 01:39:24;;;;;;;15.03;11.07;;;-2.80;99.90;;;;;;5058804;28;20180;-78
2024/01/13 01:41:50;;;;;;;18.47;11.97;;;-2.60;99.90;;;;;;5053956;28;20208;-79
2024/01/13 01:44:16;;;;;;;16.10;10.77;;;-2.90;99.90;;;;;;5055951;28;20172;-77
2024/01/13 01:46:43;;;;;;;18.53;12.23;;;-2.70;99.90;;;;;;5058152;28;20186;-78
2024/01/13 01:49:12;;;;;;;16.50;11.63;;;-2.70;99.90;;;;;;5066207;28;20225;-77
2024/01/13 01:51:37;;;;;;;14.67;10.43;;;-2.80;99.90;;;;;;5057771;28;20246;-79
2024/01/13 01:54:03;;;;;;;16.53;11.17;;;-2.80;99.90;;;;;;5052927;28;20179;-81
2024/01/13 01:56:34;;;;;;;16.43;12.00;;;-2.90;99.90;;;;;;5053696;28;20197;-80
2024/01/13 01:59:01;;;;;;;21.27;10.80;;;-2.80;99.90;;;;;;5052402;28;20306;-77
2024/01/13 02:01:32;;;;;;;15.43;10.93;;;-3.00;99.90;;;;;;5052767;28;20925;-78
2024/01/13 02:04:00;;;;;;;20.43;11.33;;;-2.70;99.90;;;;;;5050871;28;20182;-78
2024/01/13 02:06:26;;;;;;;18.90;11.47;;;-2.60;99.90;;;;;;5085161;28;20184;-78
2024/01/13 02:08:52;;;;;;;18.67;11.80;;;-2.50;99.90;;;;;;5058004;28;20176;-75
2024/01/13 02:11:19;;;;;;;19.23;11.80;;;-2.60;99.90;;;;;;5056892;28;20255;-79
2024/01/13 02:13:46;;;;;;;14.87;10.97;;;-2.90;99.90;;;;;;5054830;28;20172;-78
2024/01/13 02:16:13;;;;;;;14.57;10.37;;;-2.80;99.90;;;;;;5056952;28;20206;-79
2024/01/13 02:18:39;;;;;;;19.10;10.43;;;-3.00;99.90;;;;;;5058044;28;20187;-79
2024/01/13 02:21:05;;;;;;;16.17;10.50;;;-3.00;99.90;;;;;;5059527;28;20176;-76
2024/01/13 02:23:31;;;;;;;18.50;11.27;;;-2.80;99.90;;;;;;5066956;28;20282;-79
2024/01/13 02:25:56;;;;;;;17.37;10.87;;;-2.70;99.90;;;;;;5069948;28;20243;-77
2024/01/13 02:28:22;;;;;;;15.57;10.17;;;-3.00;99.90;;;;;;5070934;28;20176;-78
2024/01/13 02:30:51;;;;;;;13.50;9.90;;;-3.10;99.90;;;;;;5057512;28;20172;-76
2024/01/13 02:33:17;;;;;;;19.20;11.20;;;-2.70;99.90;;;;;;5056209;28;20176;-80
2024/01/13 02:35:43;;;;;;;16.20;10.57;;;-3.10;99.90;;;;;;5054442;28;20234;-79
2024/01/13 02:38:08;;;;;;;15.73;10.70;;;-2.80;99.90;;;;;;5055628;28;20187;-77
2024/01/13 02:40:34;;;;;;;16.33;11.20;;;-2.90;99.90;;;;;;5054991;28;20188;-78
2024/01/13 02:43:00;;;;;;;19.47;11.10;;;-3.10;99.90;;;;;;5055456;28;20215;-79
2024/01/13 02:45:26;;;;;;;18.47;11.43;;;-2.90;99.90;;;;;;5060060;28;20206;-79
2024/01/13 02:48:04;;;;;;;19.20;10.63;;;-3.10;99.90;;;;;;5061465;28;20184;-78
2024/01/13 02:50:30;;;;;;;19.23;11.30;;;-3.20;99.90;;;;;;5055064;28;20168;-78
2024/01/13 02:52:56;;;;;;;16.33;10.87;;;-3.20;99.90;;;;;;5056647;28;20669;-76
2024/01/13 02:55:22;;;;;;;16.10;10.63;;;-3.40;99.90;;;;;;5055230;28;20250;-78
2024/01/13 02:57:50;;;;;;;17.83;11.00;;;-3.30;99.90;;;;;;5055067;28;20210;-76
2024/01/13 03:00:17;;;;;;;17.20;11.27;;;-3.20;99.90;;;;;;5055056;28;20259;-79
2024/01/13 03:02:43;;;;;;;16.20;10.20;;;-3.30;99.90;;;;;;5054747;28;20294;-77
2024/01/13 03:05:10;;;;;;;16.70;10.27;;;-3.10;99.90;;;;;;5058858;28;20164;-80
2024/01/13 03:07:36;;;;;;;16.77;10.63;;;-3.40;99.90;;;;;;5057971;28;20275;-78
2024/01/13 03:10:02;;;;;;;16.63;10.90;;;-3.10;99.90;;;;;;5035635;28;20604;-79
2024/01/13 03:12:28;;;;;;;17.60;10.43;;;-3.00;99.90;;;;;;5035439;28;20711;-79
2024/01/13 03:14:56;;;;;;;17.73;11.27;;;-2.90;99.90;;;;;;5035067;28;20212;-79
2024/01/13 03:17:23;;;;;;;17.47;10.80;;;-3.20;99.90;;;;;;5034186;28;20191;-79
2024/01/13 03:19:49;;;;;;;18.17;10.50;;;-3.00;99.90;;;;;;5035096;28;20675;-79
2024/01/13 03:22:14;;;;;;;17.47;11.23;;;-2.60;99.90;;;;;;5035717;28;20204;-79
2024/01/13 03:24:40;;;;;;;15.03;9.77;;;-3.40;99.90;;;;;;5034295;28;20171;-78
2024/01/13 03:27:06;;;;;;;15.17;10.30;;;-3.10;99.90;;;;;;5032880;28;20190;-77
2024/01/13 03:29:32;;;;;;;14.67;9.63;;;-3.20;99.90;;;;;;5033558;28;20636;-80
2024/01/13 03:31:58;;;;;;;15.37;10.50;;;-3.20;99.90;;;;;;5034485;28;20176;-79
2024/01/13 03:34:23;;;;;;;14.20;9.57;;;-3.50;99.90;;;;;;5033279;28;20184;-79
2024/01/13 03:36:49;;;;;;;14.23;10.40;;;-3.20;99.90;;;;;;5034461;28;20260;-79
2024/01/13 03:39:15;;;;;;;15.30;9.63;;;-3.10;99.90;;;;;;5033953;28;20286;-79
2024/01/13 03:41:40;;;;;;;14.63;9.90;;;-3.50;99.90;;;;;;5035694;28;20208;-78
2024/01/13 03:44:06;;;;;;;16.10;11.17;;;-3.20;99.90;;;;;;5035033;28;20176;-80
2024/01/13 03:46:33;;;;;;;14.50;10.03;;;-3.30;99.90;;;;;;5033995;28;20179;-79
2024/01/13 03:48:59;;;;;;;19.20;10.70;;;-3.50;99.90;;;;;;5035318;28;20167;-78
2024/01/13 03:51:25;;;;;;;17.17;10.67;;;-2.90;99.90;;;;;;5033581;28;20176;-76
2024/01/13 03:53:51;;;;;;;18.60;10.73;;;-3.30;99.90;;;;;;5032553;28;20184;-79
2024/01/13 03:56:16;;;;;;;16.57;10.27;;;-3.60;99.90;;;;;;5032777;28;20181;-77
2024/01/13 03:58:42;;;;;;;19.33;10.53;;;-3.60;99.90;;;;;;5033142;28;20539;-79
2024/01/13 04:01:08;;;;;;;13.43;10.37;;;-3.70;99.90;;;;;;5034416;28;20705;-78
2024/01/13 04:03:34;;;;;;;14.73;10.03;;;-3.40;99.90;;;;;;5039923;28;20180;-80
2024/01/13 04:06:03;;;;;;;16.73;10.23;;;-3.20;99.90;;;;;;5039622;28;20279;-77
2024/01/13 04:08:29;;;;;;;15.83;10.43;;;-3.60;99.90;;;;;;5033658;28;20191;-78
2024/01/13 04:10:55;;;;;;;15.07;9.80;;;-3.30;99.90;;;;;;5033528;28;20228;-77
2024/01/13 04:13:21;;;;;;;12.87;9.43;;;-3.40;99.90;;;;;;5034291;28;20180;-77
2024/01/13 04:15:46;;;;;;;17.60;11.03;;;-3.30;99.90;;;;;;5035805;28;20169;-78
2024/01/13 04:18:12;;;;;;;16.97;9.73;;;-4.30;99.90;;;;;;5038299;28;20169;-76
2024/01/13 04:20:38;;;;;;;14.63;9.80;;;-3.50;99.90;;;;;;5033754;28;20176;-76
2024/01/13 04:23:04;;;;;;;16.43;9.70;;;-3.70;99.90;;;;;;5044079;28;20216;-79
2024/01/13 04:25:31;;;;;;;18.17;10.87;;;-3.50;99.90;;;;;;5043175;28;20192;-78
2024/01/13 04:27:58;;;;;;;17.90;9.90;;;-3.40;99.90;;;;;;5045446;28;20172;-79
2024/01/13 04:30:23;;;;;;;14.47;9.63;;;-3.40;99.90;;;;;;5037292;28;20183;-78
2024/01/13 04:32:50;;;;;;;16.97;9.83;;;-3.60;99.90;;;;;;5035720;28;20639;-78
2024/01/13 04:35:15;;;;;;;15.37;10.13;;;-3.60;99.90;;;;;;5034481;28;20180;-79
2024/01/13 04:37:42;;;;;;;16.13;10.20;;;-3.80;99.90;;;;;;5035937;28;20179;-79
2024/01/13 04:40:08;;;;;;;16.73;10.43;;;-3.90;99.90;;;;;;5033595;28;20173;-76
2024/01/13 04:42:34;;;;;;;14.97;9.77;;;-3.80;99.90;;;;;;5039543;28;20208;-80
2024/01/13 04:45:00;;;;;;;15.00;10.53;;;-3.70;99.90;;;;;;5042272;28;20214;-78
2024/01/13 04:47:26;;;;;;;15.27;9.40;;;-3.60;99.90;;;;;;5033747;28;20570;-78
2024/01/13 04:49:52;;;;;;;13.37;9.83;;;-3.80;99.90;;;;;;5033352;28;20188;-79
2024/01/13 04:52:17;;;;;;;14.43;10.10;;;-4.00;99.90;;;;;;5033629;28;20216;-77
2024/01/13 04:54:43;;;;;;;17.10;9.80;;;-3.90;99.90;;;;;;5036972;28;20176;-78
2024/01/13 04:57:10;;;;;;;17.83;10.10;;;-3.70;99.90;;;;;;5033402;28;20172;-81
2024/01/13 04:59:35;;;;;;;16.60;9.83;;;-3.70;99.90;;;;;;5033887;28;20593;-77
2024/01/13 05:02:01;;;;;;;14.23;9.87;;;-3.80;99.90;;;;;;5032492;28;20261;-79
2024/01/13 05:04:27;;;;;;;15.63;9.97;;;-3.80;99.90;;;;;;5040946;28;20202;-80
2024/01/13 05:06:52;;;;;;;13.37;9.20;;;-3.80;99.90;;;;;;5033164;28;20686;-79
2024/01/13 05:09:18;;;;;;;15.60;9.33;;;-3.70;99.90;;;;;;5032601;28;20192;-79
2024/01/13 05:11:44;;;;;;;13.50;9.83;;;-3.80;99.90;;;;;;5032791;28;20676;-77
2024/01/13 05:14:10;;;;;;;12.43;8.77;;;-3.60;99.90;;;;;;5034313;28;20184;-80
2024/01/13 05:16:36;;;;;;;13.70;9.03;;;-3.90;99.90;;;;;;5032589;28;20178;-78
2024/01/13 05:19:02;;;;;;;16.27;9.27;;;-3.90;99.90;;;;;;5032480;28;20707;-79
2024/01/13 05:21:28;;;;;;;13.67;8.93;;;-4.00;99.90;;;;;;5039236;28;20192;-80
2024/01/13 05:23:54;;;;;;;14.93;9.37;;;-3.70;99.90;;;;;;5036312;28;20275;-77
2024/01/13 05:26:19;;;;;;;13.87;9.03;;;-3.50;99.90;;;;;;5034016;28;20176;-77
2024/01/13 05:28:45;;;;;;;17.30;9.30;;;-3.70;99.90;;;;;;5033155;28;20157;-77
2024/01/13 05:31:11;;;;;;;16.57;10.00;;;-3.50;99.90;;;;;;5033861;28;20181;-79
2024/01/13 05:33:37;;;;;;;11.87;8.77;;;-3.70;99.90;;;;;;5032590;28;20378;-79
2024/01/13 05:36:02;;;;;;;15.67;9.43;;;-3.50;99.90;;;;;;5032410;28;20188;-79
2024/01/13 05:38:28;;;;;;;13.03;9.50;;;-3.80;99.90;;;;;;5034267;28;20169;-79
2024/01/13 05:40:54;;;;;;;15.00;9.90;;;-3.80;99.90;;;;;;5032731;28;20246;-79
2024/01/13 05:43:20;;;;;;;14.13;9.77;;;-3.50;99.90;;;;;;5032635;28;20688;-78
2024/01/13 05:45:46;;;;;;;16.13;9.33;;;-3.40;99.90;;;;;;5032527;28;20195;-78
2024/01/13 05:48:12;;;;;;;13.87;9.43;;;-3.50;99.90;;;;;;5035263;28;20188;-77
2024/01/13 05:50:38;;;;;;;15.97;9.73;;;-3.60;99.90;;;;;;5037919;28;20169;-79
2024/01/13 05:53:03;;;;;;;13.20;9.10;;;-3.40;99.90;;;;;;5035627;28;20198;-79
2024/01/13 05:55:29;;;;;;;11.50;8.87;;;-3.60;99.90;;;;;;5036986;28;20179;-80
2024/01/13 05:57:55;;;;;;;11.20;8.17;;;-3.70;99.90;;;;;;5035606;28;20237;-79
2024/01/13 06:00:21;;;;;;;12.83;8.90;;;-3.70;99.90;;;;;;5036643;28;20247;-75
2024/01/13 06:02:47;;;;;;;13.83;10.00;;;-3.70;99.90;;;;;;5039225;28;20652;-77
2024/01/13 06:05:12;;;;;;;14.33;10.07;;;-3.90;99.90;;;;;;5046921;28;20172;-77
2024/01/13 06:07:38;;;;;;;14.63;10.00;;;-3.70;99.90;;;;;;5043609;28;20189;-77
2024/01/13 06:10:04;;;;;;;11.10;8.87;;;-3.90;99.90;;;;;;5036435;28;20635;-77
2024/01/13 06:12:30;;;;;;;15.27;10.03;;;-3.80;99.90;;;;;;5035981;28;20318;-77
2024/01/13 06:14:56;;;;;;;13.83;9.40;;;-3.00;99.90;;;;;;5038237;28;20706;-79
2024/01/13 06:17:22;;;;;;;15.30;10.70;;;-3.70;99.90;;;;;;5047758;28;20199;-79
2024/01/13 06:19:49;;;;;;;16.07;10.47;;;-3.50;99.90;;;;;;5049617;28;20222;-78
2024/01/13 06:22:15;;;;;;;13.00;10.30;;;-3.60;99.90;;;;;;5053324;28;20210;-78
2024/01/13 06:24:41;;;;;;;15.03;9.77;;;-3.80;99.90;;;;;;5057182;28;20172;-79
2024/01/13 06:27:07;;;;;;;19.50;11.00;;;-3.60;99.90;;;;;;5038252;28;20535;-77
2024/01/13 06:29:32;;;;;;;17.33;11.00;;;-3.80;99.90;;;;;;5035820;28;20182;-76
2024/01/13 06:31:58;;;;;;;17.10;10.83;;;-3.90;99.90;;;;;;5035830;28;20179;-78
2024/01/13 06:34:24;;;;;;;25.67;12.73;;;-3.70;99.90;;;;;;5036270;28;20194;-78
2024/01/13 06:36:50;;;;;;;21.90;12.47;;;-3.90;99.90;;;;;;5040274;28;20183;-77
2024/01/13 06:39:15;;;;;;;21.60;12.00;;;-3.50;99.90;;;;;;5050678;28;20207;-78
2024/01/13 06:41:41;;;;;;;20.47;12.33;;;-3.70;99.90;;;;;;5041400;28;20203;-76
2024/01/13 06:44:07;;;;;;;24.50;12.73;;;-3.70;99.90;;;;;;5036990;28;20620;-76
2024/01/13 06:46:33;;;;;;;22.03;12.47;;;-3.70;99.90;;;;;;5041518;28;20240;-78
2024/01/13 06:48:58;;;;;;;22.00;12.93;;;-3.40;99.90;;;;;;5041435;28;20270;-77
2024/01/13 06:51:24;;;;;;;24.30;13.77;;;-3.70;99.90;;;;;;5041141;28;20181;-80
2024/01/13 06:53:50;;;;;;;22.83;14.53;;;-3.60;99.90;;;;;;5036628;28;20169;-76
2024/01/13 06:56:16;;;;;;;23.73;13.87;;;-3.90;99.90;;;;;;5037361;28;20215;-76
2024/01/13 06:58:41;;;;;;;22.33;13.00;;;-3.40;99.90;;;;;;5035226;28;20258;-77
2024/01/13 07:01:07;;;;;;;22.40;13.17;;;-3.80;99.90;;;;;;5035928;28;20200;-77
2024/01/13 07:03:33;;;;;;;21.43;13.87;;;-3.60;99.90;;;;;;5036262;28;20481;-79
2024/01/13 07:05:59;;;;;;;22.30;13.70;;;-3.90;99.90;;;;;;5033693;28;20208;-79
2024/01/13 07:08:25;;;;;;;19.27;12.13;;;-3.80;99.90;;;;;;5035712;28;20238;-79
2024/01/13 07:10:53;;;;;;;21.03;12.37;;;-3.70;99.90;;;;;;5035350;28;20220;-79
2024/01/13 07:13:19;;;;;;;20.13;12.23;;;-3.60;99.90;;;;;;5035532;28;20191;-80
2024/01/13 07:15:45;;;;;;;20.30;12.77;;;-3.80;99.90;;;;;;5035602;28;20643;-78
2024/01/13 07:18:11;;;;;;;26.43;12.43;;;-3.50;99.90;;;;;;5034923;28;20200;-79
2024/01/13 07:20:36;;;;;;;19.77;12.47;;;-3.70;99.90;;;;;;5034874;28;20180;-76
2024/01/13 07:23:03;;;;;;;23.00;13.10;;;-3.50;99.90;;;;;;5034860;28;20200;-78
2024/01/13 07:25:30;;;;;;;22.67;13.77;;;-3.60;99.90;;;;;;5034816;28;20165;-78
2024/01/13 07:27:57;;;;;;;18.13;12.90;;;-3.60;99.90;;;;;;5033305;28;20188;-80
2024/01/13 07:30:22;;;;;;;26.07;14.37;;;-3.50;99.90;;;;;;5035194;28;20207;-77
2024/01/13 07:32:48;;;;;;;20.33;13.50;;;-3.60;99.90;;;;;;5034893;28;20185;-78
2024/01/13 07:35:14;;;;;;;20.43;13.07;;;-3.60;99.90;;;;;;5034553;28;20176;-79
2024/01/13 07:37:40;;;;;;;22.10;12.53;;;-3.70;99.90;;;;;;5035156;28;20181;-81
2024/01/13 07:40:06;;;;;;;21.37;13.10;;;-3.50;99.90;;;;;;5035170;28;20176;-81
2024/01/13 07:42:32;;;;;;;18.43;12.40;;;-3.40;99.90;;;;;;5036214;28;20220;-79
2024/01/13 07:44:59;;;;;;;19.17;13.03;;;-3.40;99.90;;;;;;5033986;28;20538;-78
2024/01/13 07:47:24;;;;;;;21.70;12.77;;;-3.40;99.90;;;;;;5034574;28;20227;-79
2024/01/13 07:49:50;;;;;;;19.57;12.03;;;-3.40;99.90;;;;;;5035035;28;20649;-77
2024/01/13 07:52:16;;;;;;;17.97;11.47;;;-3.20;99.90;;;;;;5035685;28;20640;-78
2024/01/13 07:54:41;;;;;;;15.70;11.13;;;-3.20;99.90;;;;;;5038503;28;20659;-77
2024/01/13 07:57:07;;;;;;;17.37;11.20;;;-3.00;99.90;;;;;;5040712;28;20181;-77
2024/01/13 07:59:33;;;;;;;18.33;11.23;;;-3.10;99.90;;;;;;5048185;28;20222;-77
2024/01/13 08:01:59;;;;;;;17.97;10.90;;;-2.70;99.90;;;;;;5038658;28;20211;-78
2024/01/13 08:04:25;;;;;;;15.20;10.50;;;-2.70;99.90;;;;;;5034599;28;20300;-78
2024/01/13 08:06:50;;;;;;;16.90;11.10;;;-2.80;99.90;;;;;;5034481;28;20251;-77
2024/01/13 08:09:17;;;;;;;15.00;11.13;;;-2.60;99.90;;;;;;5034117;28;20235;-76
2024/01/13 08:11:43;;;;;;;16.60;11.83;;;-2.70;99.90;;;;;;5032484;28;20220;-79
2024/01/13 08:14:09;;;;;;;15.63;11.10;;;-2.60;99.90;;;;;;5033462;28;20636;-77
2024/01/13 08:16:34;;;;;;;13.70;10.70;;;-2.40;99.90;;;;;;5038190;28;20270;-78
2024/01/13 08:19:01;;;;;;;18.10;11.33;;;-2.20;99.90;;;;;;5036831;28;20235;-79
2024/01/13 08:21:27;;;;;;;20.10;11.57;;;-2.20;99.90;;;;;;5037237;28;20640;-78
2024/01/13 08:23:53;;;;;;;20.00;11.63;;;-2.10;99.90;;;;;;5051073;28;20177;-78
2024/01/13 08:26:18;;;;;;;18.20;11.27;;;-2.10;99.90;;;;;;5034539;28;20173;-78
2024/01/13 08:28:44;;;;;;;16.43;10.73;;;-2.30;99.90;;;;;;5034049;28;20174;-80
2024/01/13 08:31:10;;;;;;;18.30;11.90;;;-2.20;99.90;;;;;;5034101;28;20255;-80
2024/01/13 08:33:35;;;;;;;20.07;11.40;;;-2.30;99.90;;;;;;5033345;28;20204;-80
2024/01/13 08:36:01;;;;;;;19.03;11.23;;;-2.30;99.90;;;;;;5033151;28;20609;-79
2024/01/13 08:38:27;;;;;;;18.73;11.97;;;-2.20;99.90;;;;;;5033104;28;20168;-76
2024/01/13 08:40:53;;;;;;;20.10;12.13;;;-2.30;99.90;;;;;;5033348;28;20184;-78
2024/01/13 08:43:18;;;;;;;17.30;12.03;;;-2.50;99.90;;;;;;5033790;28;20208;-78
2024/01/13 08:45:44;;;;;;;19.00;11.40;;;-2.20;99.90;;;;;;5044825;28;20180;-79
2024/01/13 08:48:10;;;;;;;21.90;12.80;;;-2.00;99.90;;;;;;5034685;28;20169;-79
2024/01/13 08:50:36;;;;;;;19.60;12.60;;;-2.20;99.90;;;;;;5034255;28;20169;-80
2024/01/13 08:53:01;;;;;;;17.57;11.90;;;-2.30;99.90;;;;;;5032989;28;20537;-78
2024/01/13 08:55:27;;;;;;;20.67;12.07;;;-2.10;99.90;;;;;;5032801;28;20169;-80
2024/01/13 08:57:53;;;;;;;20.43;13.67;;;-2.30;99.90;;;;;;5033122;28;20166;-77
2024/01/13 09:00:19;;;;;;;19.77;12.47;;;-2.30;99.90;;;;;;5032427;28;20595;-80
2024/01/13 09:02:45;;;;;;;20.93;12.67;;;-2.20;99.90;;;;;;5032828;28;20231;-79
2024/01/13 09:05:11;;;;;;;19.80;13.00;;;-2.50;99.90;;;;;;5032955;28;20218;-80
2024/01/13 09:07:37;;;;;;;20.63;13.07;;;-2.50;99.90;;;;;;5031390;28;20176;-80
2024/01/13 09:10:04;;;;;;;18.83;12.63;;;-2.30;99.90;;;;;;5032978;28;20222;-80
2024/01/13 09:12:30;;;;;;;20.47;13.07;;;-2.20;99.90;;;;;;5031946;28;20658;-80
2024/01/13 09:14:58;;;;;;;19.87;12.53;;;-2.20;99.90;;;;;;5033392;28;20192;-80
2024/01/13 09:17:25;;;;;;;19.23;12.40;;;-1.80;99.90;;;;;;5043923;28;20197;-78
2024/01/13 09:19:52;;;;;;;21.43;14.17;;;-1.90;99.90;;;;;;5032595;28;20629;-82
2024/01/13 09:22:18;;;;;;;20.23;13.33;;;-1.90;99.90;;;;;;5050023;28;20212;-80
2024/01/13 09:24:44;;;;;;;22.57;13.47;;;-1.90;99.90;;;;;;5036692;28;20183;-80
2024/01/13 09:27:10;;;;;;;24.27;14.00;;;-1.80;99.90;;;;;;5035852;28;20237;-79
2024/01/13 09:29:35;;;;;;;21.87;14.97;;;-1.70;99.90;;;;;;5035453;28;20261;-79
2024/01/13 09:32:04;;;;;;;18.97;13.00;;;-1.70;99.90;;;;;;5036344;28;20564;-78
2024/01/13 09:34:30;;;;;;;19.50;12.60;;;-1.90;99.90;;;;;;5037452;28;20534;-79
2024/01/13 09:36:56;;;;;;;20.90;13.50;;;-1.70;99.90;;;;;;5045528;28;20177;-77
2024/01/13 09:39:22;;;;;;;20.73;13.03;;;-1.90;99.90;;;;;;5040786;28;20268;-77
2024/01/13 09:41:48;;;;;;;21.60;14.13;;;-1.40;99.90;;;;;;5036816;28;20541;-78
2024/01/13 09:44:24;;;;;;;21.17;13.07;;;-1.50;99.90;;;;;;5037514;28;20252;-79
2024/01/13 09:46:51;;;;;;;20.20;12.87;;;-1.40;99.90;;;;;;5052737;28;20184;-79
2024/01/13 09:49:18;;;;;;;16.77;12.63;;;-1.30;99.90;;;;;;5058621;28;20177;-80
2024/01/13 09:51:45;;;;;;;24.80;13.60;;;-1.20;99.90;;;;;;5054572;28;20676;-80
2024/01/13 09:54:26;;;;;;;18.60;12.23;;;-1.20;99.90;;;;;;5054653;28;20180;-79
2024/01/13 09:56:53;;;;;;;18.97;11.93;;;-1.10;99.90;;;;;;5055959;28;20164;-78
2024/01/13 09:59:21;;;;;;;18.83;11.70;;;-1.10;99.90;;;;;;5055651;28;20177;-79
2024/01/13 10:01:47;;;;;;;16.73;11.03;;;-0.90;99.90;;;;;;5055526;28;20266;-79
2024/01/13 10:04:12;;;;;;;17.70;11.50;;;-1.00;99.90;;;;;;5055443;28;20181;-80
2024/01/13 10:06:39;;;;;;;18.27;11.93;;;-0.90;99.90;;;;;;5055407;28;20221;-80
2024/01/13 10:09:06;;;;;;;18.83;12.03;;;-1.10;99.90;;;;;;5054434;28;20185;-78
2024/01/13 10:11:31;;;;;;;20.30;13.30;;;-1.10;99.90;;;;;;5054337;28;20305;-79
2024/01/13 10:14:04;;;;;;;20.33;12.07;;;-0.90;99.90;;;;;;5056764;28;20189;-79
2024/01/13 10:16:33;;;;;;;25.70;11.07;;;-0.80;99.90;;;;;;5055656;28;20551;-78
2024/01/13 10:19:01;;;;;;;18.87;11.43;;;-0.80;99.90;;;;;;5055546;28;20527;-78
2024/01/13 10:21:27;;;;;;;15.43;10.90;;;-0.60;99.90;;;;;;5057421;28;20191;-77
2024/01/13 10:23:57;;;;;;;17.33;12.20;;;-0.70;99.90;;;;;;5075786;28;20342;-78
2024/01/13 10:26:24;;;;;;;17.23;12.23;;;-0.50;99.90;;;;;;5072620;28;20174;-78
2024/01/13 10:28:50;;;;;;;17.70;12.40;;;-0.20;99.90;;;;;;5064130;28;20209;-78
2024/01/13 10:31:20;;;;;;;20.67;12.73;;;-0.40;99.90;;;;;;5058842;28;20197;-78
2024/01/13 10:33:49;;;;;;;16.87;11.77;;;-0.40;99.90;;;;;;5058024;28;20238;-78
2024/01/13 10:36:16;;;;;;;17.00;11.53;;;-0.50;99.90;;;;;;5065650;28;20216;-79
2024/01/13 10:38:45;;;;;;;18.37;12.00;;;-0.30;99.90;;;;;;5058155;28;20598;-78
2024/01/13 10:41:11;;;;;;;19.00;11.70;;;-0.30;99.90;;;;;;5057704;28;20232;-77
2024/01/13 10:43:40;;;;;;;20.60;12.67;;;-0.40;99.90;;;;;;5056791;28;20224;-77
2024/01/13 10:46:13;;;;;;;20.93;12.37;;;-0.30;99.90;;;;;;5054898;28;20187;-77
2024/01/13 10:48:47;;;;;;;17.30;12.00;;;-0.40;99.90;;;;;;5056730;28;20239;-80
2024/01/13 10:51:23;;;;;;;22.47;12.47;;;-0.20;99.90;;;;;;5053933;28;20180;-82
2024/01/13 10:53:51;;;;;;;19.57;13.70;;;-0.10;99.90;;;;;;5013617;28;20175;-79
2024/01/13 10:56:17;;;;;;;20.33;12.47;;;0.10;99.90;;;;;;5015078;28;20649;-81
2024/01/13 10:58:48;;;;;;;17.67;11.87;;;0.00;99.90;;;;;;5053308;28;20224;-78
2024/01/13 11:01:14;;;;;;;17.07;12.27;;;0.00;99.90;;;;;;5054020;28;20183;-79
2024/01/13 11:03:45;;;;;;;14.30;11.03;;;0.20;99.90;;;;;;5054049;28;20270;-77
2024/01/13 11:06:11;;;;;;;21.57;10.57;;;0.00;99.90;;;;;;5054067;28;20643;-79
2024/01/13 11:08:37;;;;;;;15.80;10.43;;;0.30;99.90;;;;;;5054049;28;20243;-80
2024/01/13 11:11:05;;;;;;;13.30;10.47;;;0.20;99.90;;;;;;5054376;28;20233;-80
2024/01/13 11:13:49;;;;;;;17.03;10.73;;;0.10;99.90;;;;;;5055149;28;20175;-81
2024/01/13 11:16:24;;;;;;;14.73;10.60;;;0.00;99.90;;;;;;5066188;28;20183;-79
2024/01/13 11:18:52;;;;;;;16.47;11.03;;;-0.80;99.90;;;;;;5038042;28;20190;-78
2024/01/13 11:21:22;;;;;;;16.57;11.17;;;0.20;99.90;;;;;;5034102;28;20227;-77
2024/01/13 11:23:58;;;;;;;15.27;10.73;;;0.40;99.90;;;;;;5051484;28;20192;-78
2024/01/13 11:26:37;;;;;;;16.30;10.90;;;0.50;99.90;;;;;;5054761;28;20224;-79
2024/01/13 11:29:14;;;;;;;19.27;12.33;;;0.60;99.90;;;;;;5052109;28;20277;-77
2024/01/13 11:31:41;;;;;;;15.77;10.90;;;0.40;99.90;;;;;;5053643;28;20226;-79
2024/01/13 11:34:11;;;;;;;15.43;10.77;;;0.70;99.90;;;;;;5055078;28;20648;-79
2024/01/13 11:36:50;;;;;;;19.30;12.93;;;0.60;99.90;;;;;;5055900;28;20192;-76
2024/01/13 11:39:17;;;;;;;15.50;11.60;;;0.60;99.90;;;;;;5066274;28;20174;-77
2024/01/13 11:41:49;;;;;;;16.60;11.83;;;0.70;99.90;;;;;;5057237;28;20202;-79
2024/01/13 11:44:23;;;;;;;15.70;11.37;;;0.60;99.90;;;;;;5053089;28;20685;-80
2024/01/13 11:46:57;;;;;;;17.27;11.43;;;0.60;99.90;;;;;;5053584;28;20500;-79
2024/01/13 11:49:33;;;;;;;16.17;12.00;;;0.70;99.90;;;;;;5053305;28;20180;-77
2024/01/13 11:52:03;;;;;;;19.87;12.13;;;0.70;99.90;;;;;;5053434;28;20637;-77
2024/01/13 11:54:36;;;;;;;16.50;11.50;;;0.90;99.90;;;;;;5060201;28;20164;-79
2024/01/13 11:57:13;;;;;;;18.00;11.63;;;0.80;99.90;;;;;;5059772;28;20188;-77
2024/01/13 11:59:39;;;;;;;20.00;13.10;;;0.80;99.90;;;;;;5055852;28;20217;-78
2024/01/13 12:02:06;;;;;;;23.03;12.00;;;0.50;99.90;;;;;;5053343;28;20210;-78
2024/01/13 12:04:35;;;;;;;16.63;11.43;;;0.90;99.90;;;;;;5053404;28;20178;-77
2024/01/13 12:07:01;;;;;;;18.53;11.47;;;1.00;99.90;;;;;;5053275;28;20535;-79
2024/01/13 12:09:28;;;;;;;19.10;11.47;;;0.90;99.90;;;;;;5053153;28;20182;-80
2024/01/13 12:11:58;;;;;;;20.03;13.77;;;1.10;99.90;;;;;;5053320;28;20285;-78
2024/01/13 12:14:29;;;;;;;17.57;12.97;;;1.00;99.90;;;;;;5054034;28;20168;-76
2024/01/13 12:16:59;;;;;;;18.27;11.97;;;1.10;99.90;;;;;;5053993;28;20257;-76
2024/01/13 12:19:32;;;;;;;16.53;12.13;;;0.90;99.90;;;;;;5016557;28;20244;-75
2024/01/13 12:21:58;;;;;;;22.73;13.43;;;0.90;99.90;;;;;;5017966;28;20564;-77
2024/01/13 12:24:27;;;;;;;19.87;13.03;;;0.90;99.90;;;;;;5063073;28;20184;-77
2024/01/13 12:26:54;;;;;;;16.47;12.43;;;1.10;99.90;;;;;;5058120;28;20179;-78
2024/01/13 12:29:24;;;;;;;16.03;11.77;;;0.90;99.90;;;;;;5067135;28;20172;-78